sensor_id;sensor_type;location;lat;lon;timestamp;P1;durP1;ratioP1;P2;durP2;ratioP2
54937;SDS011;52756;52.826;6.214;2023-12-20T00:01:32;12.25;;;2.17;;
54937;SDS011;52756;52.826;6.214;2023-12-20T00:03:57;8.23;;;1.45;;
54937;SDS011;52756;52.826;6.214;2023-12-20T00:06:23;7.82;;;1.92;;
54937;SDS011;52756;52.826;6.214;2023-12-20T00:08:49;7.38;;;2.15;;
54937;SDS011;52756;52.826;6.214;2023-12-20T00:11:14;12.23;;;2.35;;
54937;SDS011;52756;52.826;6.214;2023-12-20T00:13:40;7.47;;;1.77;;
54937;SDS011;52756;52.826;6.214;2023-12-20T00:16:05;13.07;;;1.83;;
54937;SDS011;52756;52.826;6.214;2023-12-20T00:18:31;12.68;;;2.35;;
54937;SDS011;52756;52.826;6.214;2023-12-20T00:20:57;8.77;;;1.70;;
54937;SDS011;52756;52.826;6.214;2023-12-20T00:23:22;6.00;;;1.90;;
54937;SDS011;52756;52.826;6.214;2023-12-20T00:25:48;12.13;;;2.03;;
54937;SDS011;52756;52.826;6.214;2023-12-20T00:28:14;11.30;;;2.30;;
54937;SDS011;52756;52.826;6.214;2023-12-20T00:30:39;7.80;;;1.85;;
54937;SDS011;52756;52.826;6.214;2023-12-20T00:33:05;8.68;;;1.48;;
54937;SDS011;52756;52.826;6.214;2023-12-20T00:35:31;9.35;;;1.70;;
54937;SDS011;52756;52.826;6.214;2023-12-20T00:37:57;7.65;;;1.50;;
54937;SDS011;52756;52.826;6.214;2023-12-20T00:40:23;8.18;;;1.98;;
54937;SDS011;52756;52.826;6.214;2023-12-20T00:42:49;4.90;;;1.00;;
54937;SDS011;52756;52.826;6.214;2023-12-20T00:45:15;9.90;;;2.30;;
54937;SDS011;52756;52.826;6.214;2023-12-20T00:47:40;9.65;;;1.65;;
54937;SDS011;52756;52.826;6.214;2023-12-20T00:50:06;5.40;;;1.60;;
54937;SDS011;52756;52.826;6.214;2023-12-20T00:52:32;6.63;;;1.58;;
54937;SDS011;52756;52.826;6.214;2023-12-20T00:54:57;15.20;;;3.15;;
54937;SDS011;52756;52.826;6.214;2023-12-20T00:57:23;5.82;;;1.52;;
54937;SDS011;52756;52.826;6.214;2023-12-20T00:59:49;10.65;;;2.28;;
54937;SDS011;52756;52.826;6.214;2023-12-20T01:02:14;10.00;;;2.47;;
54937;SDS011;52756;52.826;6.214;2023-12-20T01:04:40;14.60;;;2.00;;
54937;SDS011;52756;52.826;6.214;2023-12-20T01:07:05;14.15;;;2.38;;
54937;SDS011;52756;52.826;6.214;2023-12-20T01:09:31;9.27;;;1.90;;
54937;SDS011;52756;52.826;6.214;2023-12-20T01:11:57;9.70;;;2.30;;
54937;SDS011;52756;52.826;6.214;2023-12-20T01:14:22;9.93;;;1.88;;
54937;SDS011;52756;52.826;6.214;2023-12-20T01:16:48;9.60;;;1.60;;
54937;SDS011;52756;52.826;6.214;2023-12-20T01:19:13;13.02;;;2.20;;
54937;SDS011;52756;52.826;6.214;2023-12-20T01:21:40;6.63;;;1.60;;
54937;SDS011;52756;52.826;6.214;2023-12-20T01:24:05;14.27;;;2.53;;
54937;SDS011;52756;52.826;6.214;2023-12-20T01:26:31;9.75;;;2.05;;
54937;SDS011;52756;52.826;6.214;2023-12-20T01:28:56;14.02;;;3.13;;
54937;SDS011;52756;52.826;6.214;2023-12-20T01:31:22;13.18;;;2.65;;
54937;SDS011;52756;52.826;6.214;2023-12-20T01:33:48;12.82;;;1.85;;
54937;SDS011;52756;52.826;6.214;2023-12-20T01:36:13;11.27;;;2.67;;
54937;SDS011;52756;52.826;6.214;2023-12-20T01:38:39;9.32;;;2.25;;
54937;SDS011;52756;52.826;6.214;2023-12-20T01:41:05;10.02;;;1.73;;
54937;SDS011;52756;52.826;6.214;2023-12-20T01:43:30;16.50;;;2.67;;
54937;SDS011;52756;52.826;6.214;2023-12-20T01:45:57;9.13;;;2.00;;
54937;SDS011;52756;52.826;6.214;2023-12-20T01:48:23;11.80;;;2.03;;
54937;SDS011;52756;52.826;6.214;2023-12-20T01:50:49;10.68;;;2.40;;
54937;SDS011;52756;52.826;6.214;2023-12-20T01:53:16;9.57;;;2.22;;
54937;SDS011;52756;52.826;6.214;2023-12-20T01:55:43;11.48;;;2.17;;
54937;SDS011;52756;52.826;6.214;2023-12-20T01:58:09;11.57;;;2.33;;
54937;SDS011;52756;52.826;6.214;2023-12-20T02:00:37;10.07;;;2.08;;
54937;SDS011;52756;52.826;6.214;2023-12-20T02:03:03;15.48;;;2.47;;
54937;SDS011;52756;52.826;6.214;2023-12-20T02:05:29;11.55;;;2.63;;
54937;SDS011;52756;52.826;6.214;2023-12-20T02:07:56;11.23;;;2.33;;
54937;SDS011;52756;52.826;6.214;2023-12-20T02:10:23;15.93;;;3.10;;
54937;SDS011;52756;52.826;6.214;2023-12-20T02:12:49;8.85;;;2.35;;
54937;SDS011;52756;52.826;6.214;2023-12-20T02:15:15;16.17;;;2.92;;
54937;SDS011;52756;52.826;6.214;2023-12-20T02:17:41;15.18;;;2.33;;
54937;SDS011;52756;52.826;6.214;2023-12-20T02:20:06;13.85;;;2.08;;
54937;SDS011;52756;52.826;6.214;2023-12-20T02:22:32;9.65;;;1.90;;
54937;SDS011;52756;52.826;6.214;2023-12-20T02:24:58;14.48;;;3.22;;
54937;SDS011;52756;52.826;6.214;2023-12-20T02:27:23;15.52;;;2.55;;
54937;SDS011;52756;52.826;6.214;2023-12-20T02:29:50;12.35;;;2.60;;
54937;SDS011;52756;52.826;6.214;2023-12-20T02:32:19;17.85;;;2.90;;
54937;SDS011;52756;52.826;6.214;2023-12-20T02:34:47;11.63;;;3.15;;
54937;SDS011;52756;52.826;6.214;2023-12-20T02:37:13;16.52;;;3.47;;
54937;SDS011;52756;52.826;6.214;2023-12-20T02:39:38;14.05;;;3.40;;
54937;SDS011;52756;52.826;6.214;2023-12-20T02:42:04;18.27;;;4.32;;
54937;SDS011;52756;52.826;6.214;2023-12-20T02:44:30;14.80;;;2.53;;
54937;SDS011;52756;52.826;6.214;2023-12-20T02:46:55;14.48;;;3.05;;
54937;SDS011;52756;52.826;6.214;2023-12-20T02:49:21;15.73;;;3.13;;
54937;SDS011;52756;52.826;6.214;2023-12-20T02:51:46;17.63;;;3.83;;
54937;SDS011;52756;52.826;6.214;2023-12-20T02:54:12;15.32;;;3.55;;
54937;SDS011;52756;52.826;6.214;2023-12-20T02:56:38;18.45;;;3.30;;
54937;SDS011;52756;52.826;6.214;2023-12-20T02:59:03;15.15;;;3.00;;
54937;SDS011;52756;52.826;6.214;2023-12-20T03:01:33;12.43;;;2.25;;
54937;SDS011;52756;52.826;6.214;2023-12-20T03:03:59;19.88;;;3.97;;
54937;SDS011;52756;52.826;6.214;2023-12-20T03:06:25;13.10;;;2.72;;
54937;SDS011;52756;52.826;6.214;2023-12-20T03:08:51;17.77;;;2.95;;
54937;SDS011;52756;52.826;6.214;2023-12-20T03:11:16;15.20;;;3.20;;
54937;SDS011;52756;52.826;6.214;2023-12-20T03:13:42;20.55;;;4.57;;
54937;SDS011;52756;52.826;6.214;2023-12-20T03:16:08;19.25;;;3.55;;
54937;SDS011;52756;52.826;6.214;2023-12-20T03:18:37;16.33;;;3.45;;
54937;SDS011;52756;52.826;6.214;2023-12-20T03:21:04;13.90;;;3.08;;
54937;SDS011;52756;52.826;6.214;2023-12-20T03:23:30;18.60;;;3.60;;
54937;SDS011;52756;52.826;6.214;2023-12-20T03:25:57;15.43;;;3.20;;
54937;SDS011;52756;52.826;6.214;2023-12-20T03:28:23;21.25;;;4.43;;
54937;SDS011;52756;52.826;6.214;2023-12-20T03:30:49;25.58;;;4.18;;
54937;SDS011;52756;52.826;6.214;2023-12-20T03:33:14;22.67;;;4.07;;
54937;SDS011;52756;52.826;6.214;2023-12-20T03:35:40;24.23;;;3.85;;
54937;SDS011;52756;52.826;6.214;2023-12-20T03:38:06;17.17;;;3.72;;
54937;SDS011;52756;52.826;6.214;2023-12-20T03:40:32;15.95;;;3.10;;
54937;SDS011;52756;52.826;6.214;2023-12-20T03:42:57;20.38;;;3.65;;
54937;SDS011;52756;52.826;6.214;2023-12-20T03:45:23;18.27;;;3.40;;
54937;SDS011;52756;52.826;6.214;2023-12-20T03:47:49;12.02;;;3.03;;
54937;SDS011;52756;52.826;6.214;2023-12-20T03:50:14;20.85;;;4.70;;
54937;SDS011;52756;52.826;6.214;2023-12-20T03:52:40;16.02;;;3.35;;
54937;SDS011;52756;52.826;6.214;2023-12-20T03:55:06;22.20;;;4.53;;
54937;SDS011;52756;52.826;6.214;2023-12-20T03:57:31;19.95;;;4.05;;
54937;SDS011;52756;52.826;6.214;2023-12-20T03:59:57;24.90;;;4.70;;
54937;SDS011;52756;52.826;6.214;2023-12-20T04:02:23;23.63;;;4.15;;
54937;SDS011;52756;52.826;6.214;2023-12-20T04:04:48;24.55;;;5.72;;
54937;SDS011;52756;52.826;6.214;2023-12-20T04:07:14;16.92;;;4.43;;
54937;SDS011;52756;52.826;6.214;2023-12-20T04:09:40;17.73;;;3.42;;
54937;SDS011;52756;52.826;6.214;2023-12-20T04:12:06;20.17;;;4.10;;
54937;SDS011;52756;52.826;6.214;2023-12-20T04:14:32;12.75;;;3.05;;
54937;SDS011;52756;52.826;6.214;2023-12-20T04:16:57;24.77;;;4.43;;
54937;SDS011;52756;52.826;6.214;2023-12-20T04:19:23;18.98;;;3.85;;
54937;SDS011;52756;52.826;6.214;2023-12-20T04:21:49;22.55;;;5.40;;
54937;SDS011;52756;52.826;6.214;2023-12-20T04:24:14;19.15;;;4.10;;
54937;SDS011;52756;52.826;6.214;2023-12-20T04:26:40;16.15;;;3.17;;
54937;SDS011;52756;52.826;6.214;2023-12-20T04:29:06;20.70;;;4.38;;
54937;SDS011;52756;52.826;6.214;2023-12-20T04:31:31;20.35;;;4.18;;
54937;SDS011;52756;52.826;6.214;2023-12-20T04:33:57;15.85;;;3.90;;
54937;SDS011;52756;52.826;6.214;2023-12-20T04:36:22;20.63;;;3.72;;
54937;SDS011;52756;52.826;6.214;2023-12-20T04:38:50;21.27;;;4.60;;
54937;SDS011;52756;52.826;6.214;2023-12-20T04:41:15;16.98;;;3.45;;
54937;SDS011;52756;52.826;6.214;2023-12-20T04:43:43;20.00;;;4.25;;
54937;SDS011;52756;52.826;6.214;2023-12-20T04:46:09;19.52;;;3.50;;
54937;SDS011;52756;52.826;6.214;2023-12-20T04:48:35;21.80;;;4.30;;
54937;SDS011;52756;52.826;6.214;2023-12-20T04:51:01;17.15;;;3.72;;
54937;SDS011;52756;52.826;6.214;2023-12-20T04:53:27;20.15;;;3.50;;
54937;SDS011;52756;52.826;6.214;2023-12-20T04:55:53;20.50;;;3.30;;
54937;SDS011;52756;52.826;6.214;2023-12-20T04:58:18;18.73;;;4.20;;
54937;SDS011;52756;52.826;6.214;2023-12-20T05:00:44;25.05;;;4.50;;
54937;SDS011;52756;52.826;6.214;2023-12-20T05:03:10;20.90;;;3.60;;
54937;SDS011;52756;52.826;6.214;2023-12-20T05:05:35;21.50;;;4.25;;
54937;SDS011;52756;52.826;6.214;2023-12-20T05:08:01;16.73;;;3.53;;
54937;SDS011;52756;52.826;6.214;2023-12-20T05:10:27;18.35;;;3.75;;
54937;SDS011;52756;52.826;6.214;2023-12-20T05:12:53;18.10;;;4.22;;
54937;SDS011;52756;52.826;6.214;2023-12-20T05:15:18;24.38;;;4.13;;
54937;SDS011;52756;52.826;6.214;2023-12-20T05:17:44;21.48;;;5.10;;
54937;SDS011;52756;52.826;6.214;2023-12-20T05:20:10;25.23;;;4.57;;
54937;SDS011;52756;52.826;6.214;2023-12-20T05:22:35;19.02;;;4.75;;
54937;SDS011;52756;52.826;6.214;2023-12-20T05:25:01;21.23;;;4.30;;
54937;SDS011;52756;52.826;6.214;2023-12-20T05:27:27;22.00;;;4.28;;
54937;SDS011;52756;52.826;6.214;2023-12-20T05:29:52;17.45;;;3.38;;
54937;SDS011;52756;52.826;6.214;2023-12-20T05:32:22;20.88;;;3.53;;
54937;SDS011;52756;52.826;6.214;2023-12-20T05:34:48;16.27;;;3.15;;
54937;SDS011;52756;52.826;6.214;2023-12-20T05:37:14;16.90;;;3.63;;
54937;SDS011;52756;52.826;6.214;2023-12-20T05:39:40;20.48;;;3.97;;
54937;SDS011;52756;52.826;6.214;2023-12-20T05:42:05;26.90;;;5.38;;
54937;SDS011;52756;52.826;6.214;2023-12-20T05:44:31;18.00;;;3.22;;
54937;SDS011;52756;52.826;6.214;2023-12-20T05:46:56;23.00;;;3.90;;
54937;SDS011;52756;52.826;6.214;2023-12-20T05:49:22;19.10;;;4.82;;
54937;SDS011;52756;52.826;6.214;2023-12-20T05:51:48;19.58;;;4.43;;
54937;SDS011;52756;52.826;6.214;2023-12-20T05:54:14;15.15;;;3.45;;
54937;SDS011;52756;52.826;6.214;2023-12-20T05:56:39;21.40;;;4.03;;
54937;SDS011;52756;52.826;6.214;2023-12-20T05:59:05;16.95;;;3.97;;
54937;SDS011;52756;52.826;6.214;2023-12-20T06:01:30;15.60;;;3.53;;
54937;SDS011;52756;52.826;6.214;2023-12-20T06:03:56;21.15;;;4.15;;
54937;SDS011;52756;52.826;6.214;2023-12-20T06:06:22;20.50;;;4.30;;
54937;SDS011;52756;52.826;6.214;2023-12-20T06:08:48;18.55;;;3.20;;
54937;SDS011;52756;52.826;6.214;2023-12-20T06:11:13;16.17;;;3.70;;
54937;SDS011;52756;52.826;6.214;2023-12-20T06:13:39;22.92;;;4.20;;
54937;SDS011;52756;52.826;6.214;2023-12-20T06:16:05;18.90;;;3.65;;
54937;SDS011;52756;52.826;6.214;2023-12-20T06:18:32;18.05;;;3.67;;
54937;SDS011;52756;52.826;6.214;2023-12-20T06:20:57;18.50;;;3.65;;
54937;SDS011;52756;52.826;6.214;2023-12-20T06:23:23;19.23;;;4.60;;
54937;SDS011;52756;52.826;6.214;2023-12-20T06:25:49;19.27;;;2.88;;
54937;SDS011;52756;52.826;6.214;2023-12-20T06:28:14;15.18;;;3.20;;
54937;SDS011;52756;52.826;6.214;2023-12-20T06:30:40;19.88;;;3.45;;
54937;SDS011;52756;52.826;6.214;2023-12-20T06:33:06;18.75;;;3.88;;
54937;SDS011;52756;52.826;6.214;2023-12-20T06:35:31;15.52;;;3.25;;
54937;SDS011;52756;52.826;6.214;2023-12-20T06:37:57;19.20;;;4.05;;
54937;SDS011;52756;52.826;6.214;2023-12-20T06:40:23;17.50;;;4.22;;
54937;SDS011;52756;52.826;6.214;2023-12-20T06:42:48;14.18;;;3.05;;
54937;SDS011;52756;52.826;6.214;2023-12-20T06:45:14;19.02;;;3.70;;
54937;SDS011;52756;52.826;6.214;2023-12-20T06:47:40;20.67;;;4.85;;
54937;SDS011;52756;52.826;6.214;2023-12-20T06:50:05;24.63;;;4.00;;
54937;SDS011;52756;52.826;6.214;2023-12-20T06:52:33;21.13;;;4.15;;
54937;SDS011;52756;52.826;6.214;2023-12-20T06:54:59;24.20;;;5.10;;
54937;SDS011;52756;52.826;6.214;2023-12-20T06:57:25;21.27;;;4.25;;
54937;SDS011;52756;52.826;6.214;2023-12-20T06:59:51;14.52;;;3.95;;
54937;SDS011;52756;52.826;6.214;2023-12-20T07:02:17;17.58;;;4.78;;
54937;SDS011;52756;52.826;6.214;2023-12-20T07:04:42;20.23;;;4.22;;
54937;SDS011;52756;52.826;6.214;2023-12-20T07:07:08;21.33;;;4.25;;
54937;SDS011;52756;52.826;6.214;2023-12-20T07:09:34;16.98;;;4.32;;
54937;SDS011;52756;52.826;6.214;2023-12-20T07:11:59;22.02;;;4.43;;
54937;SDS011;52756;52.826;6.214;2023-12-20T07:14:25;19.75;;;4.07;;
54937;SDS011;52756;52.826;6.214;2023-12-20T07:16:51;16.73;;;3.60;;
54937;SDS011;52756;52.826;6.214;2023-12-20T07:19:16;18.52;;;3.95;;
54937;SDS011;52756;52.826;6.214;2023-12-20T07:21:42;19.08;;;4.35;;
54937;SDS011;52756;52.826;6.214;2023-12-20T07:24:08;14.50;;;3.60;;
54937;SDS011;52756;52.826;6.214;2023-12-20T07:26:33;23.52;;;4.32;;
54937;SDS011;52756;52.826;6.214;2023-12-20T07:29:00;20.27;;;4.50;;
54937;SDS011;52756;52.826;6.214;2023-12-20T07:31:25;22.27;;;4.20;;
54937;SDS011;52756;52.826;6.214;2023-12-20T07:33:51;15.25;;;3.40;;
54937;SDS011;52756;52.826;6.214;2023-12-20T07:36:17;26.05;;;4.55;;
54937;SDS011;52756;52.826;6.214;2023-12-20T07:38:42;16.25;;;3.55;;
54937;SDS011;52756;52.826;6.214;2023-12-20T07:41:12;13.95;;;3.78;;
54937;SDS011;52756;52.826;6.214;2023-12-20T07:43:38;14.45;;;3.60;;
54937;SDS011;52756;52.826;6.214;2023-12-20T07:46:04;15.30;;;4.20;;
54937;SDS011;52756;52.826;6.214;2023-12-20T07:48:31;21.83;;;4.35;;
54937;SDS011;52756;52.826;6.214;2023-12-20T07:50:57;21.35;;;4.20;;
54937;SDS011;52756;52.826;6.214;2023-12-20T07:53:22;19.05;;;4.80;;
54937;SDS011;52756;52.826;6.214;2023-12-20T07:55:48;19.13;;;3.78;;
54937;SDS011;52756;52.826;6.214;2023-12-20T07:58:13;24.70;;;4.68;;
54937;SDS011;52756;52.826;6.214;2023-12-20T08:00:39;17.67;;;4.18;;
54937;SDS011;52756;52.826;6.214;2023-12-20T08:03:04;19.63;;;4.38;;
54937;SDS011;52756;52.826;6.214;2023-12-20T08:05:30;13.13;;;3.42;;
54937;SDS011;52756;52.826;6.214;2023-12-20T08:07:55;21.05;;;4.00;;
54937;SDS011;52756;52.826;6.214;2023-12-20T08:10:21;16.75;;;3.67;;
54937;SDS011;52756;52.826;6.214;2023-12-20T08:12:47;24.73;;;4.72;;
54937;SDS011;52756;52.826;6.214;2023-12-20T08:15:12;22.17;;;5.18;;
54937;SDS011;52756;52.826;6.214;2023-12-20T08:17:39;16.17;;;4.80;;
54937;SDS011;52756;52.826;6.214;2023-12-20T08:20:05;24.38;;;5.30;;
54937;SDS011;52756;52.826;6.214;2023-12-20T08:22:31;22.80;;;4.68;;
54937;SDS011;52756;52.826;6.214;2023-12-20T08:24:56;22.35;;;4.28;;
54937;SDS011;52756;52.826;6.214;2023-12-20T08:27:22;22.63;;;4.95;;
54937;SDS011;52756;52.826;6.214;2023-12-20T08:29:47;19.02;;;3.47;;
54937;SDS011;52756;52.826;6.214;2023-12-20T08:32:15;19.13;;;3.53;;
54937;SDS011;52756;52.826;6.214;2023-12-20T08:34:40;17.02;;;3.53;;
54937;SDS011;52756;52.826;6.214;2023-12-20T08:37:07;29.02;;;5.18;;
54937;SDS011;52756;52.826;6.214;2023-12-20T08:39:33;20.48;;;3.42;;
54937;SDS011;52756;52.826;6.214;2023-12-20T08:41:58;17.45;;;4.22;;
54937;SDS011;52756;52.826;6.214;2023-12-20T08:44:24;17.65;;;4.18;;
54937;SDS011;52756;52.826;6.214;2023-12-20T08:46:50;23.33;;;5.10;;
54937;SDS011;52756;52.826;6.214;2023-12-20T08:49:15;19.20;;;4.47;;
54937;SDS011;52756;52.826;6.214;2023-12-20T08:51:41;22.27;;;4.97;;
54937;SDS011;52756;52.826;6.214;2023-12-20T08:54:07;17.20;;;3.72;;
54937;SDS011;52756;52.826;6.214;2023-12-20T08:56:33;19.98;;;5.10;;
54937;SDS011;52756;52.826;6.214;2023-12-20T08:58:59;22.17;;;4.03;;
54937;SDS011;52756;52.826;6.214;2023-12-20T09:01:24;17.52;;;3.85;;
54937;SDS011;52756;52.826;6.214;2023-12-20T09:03:50;22.83;;;4.32;;
54937;SDS011;52756;52.826;6.214;2023-12-20T09:06:15;16.45;;;3.53;;
54937;SDS011;52756;52.826;6.214;2023-12-20T09:08:41;16.73;;;3.67;;
54937;SDS011;52756;52.826;6.214;2023-12-20T09:11:07;23.27;;;3.83;;
54937;SDS011;52756;52.826;6.214;2023-12-20T09:13:32;22.05;;;4.32;;
54937;SDS011;52756;52.826;6.214;2023-12-20T09:15:58;14.40;;;3.08;;
54937;SDS011;52756;52.826;6.214;2023-12-20T09:18:24;21.40;;;4.78;;
54937;SDS011;52756;52.826;6.214;2023-12-20T09:20:50;16.38;;;3.88;;
54937;SDS011;52756;52.826;6.214;2023-12-20T09:23:15;18.90;;;4.20;;
54937;SDS011;52756;52.826;6.214;2023-12-20T09:25:42;16.23;;;3.15;;
54937;SDS011;52756;52.826;6.214;2023-12-20T09:28:08;19.65;;;4.32;;
54937;SDS011;52756;52.826;6.214;2023-12-20T09:30:33;22.50;;;4.20;;
54937;SDS011;52756;52.826;6.214;2023-12-20T09:33:00;23.08;;;4.53;;
54937;SDS011;52756;52.826;6.214;2023-12-20T09:35:26;16.80;;;5.05;;
54937;SDS011;52756;52.826;6.214;2023-12-20T09:37:51;21.52;;;4.65;;
54937;SDS011;52756;52.826;6.214;2023-12-20T09:40:17;24.85;;;4.63;;
54937;SDS011;52756;52.826;6.214;2023-12-20T09:45:29;20.63;;;4.10;;
54937;SDS011;52756;52.826;6.214;2023-12-20T09:47:56;11.20;;;2.40;;
54937;SDS011;52756;52.826;6.214;2023-12-20T09:50:23;19.08;;;3.50;;
54937;SDS011;52756;52.826;6.214;2023-12-20T09:52:49;10.93;;;2.17;;
54937;SDS011;52756;52.826;6.214;2023-12-20T09:55:19;16.08;;;3.47;;
54937;SDS011;52756;52.826;6.214;2023-12-20T09:57:45;10.25;;;2.00;;
54937;SDS011;52756;52.826;6.214;2023-12-20T10:00:12;10.50;;;2.80;;
54937;SDS011;52756;52.826;6.214;2023-12-20T10:02:40;8.10;;;2.58;;
54937;SDS011;52756;52.826;6.214;2023-12-20T10:05:13;10.07;;;2.08;;
54937;SDS011;52756;52.826;6.214;2023-12-20T10:07:45;9.55;;;2.35;;
54937;SDS011;52756;52.826;6.214;2023-12-20T10:10:12;9.38;;;1.58;;
54937;SDS011;52756;52.826;6.214;2023-12-20T10:12:38;11.75;;;2.47;;
54937;SDS011;52756;52.826;6.214;2023-12-20T10:15:04;10.75;;;2.05;;
54937;SDS011;52756;52.826;6.214;2023-12-20T10:17:30;7.72;;;1.60;;
54937;SDS011;52756;52.826;6.214;2023-12-20T10:19:57;7.90;;;1.70;;
54937;SDS011;52756;52.826;6.214;2023-12-20T10:22:23;10.98;;;2.17;;
54937;SDS011;52756;52.826;6.214;2023-12-20T10:24:49;10.85;;;1.95;;
54937;SDS011;52756;52.826;6.214;2023-12-20T10:27:14;9.95;;;1.77;;
54937;SDS011;52756;52.826;6.214;2023-12-20T10:29:44;10.32;;;1.90;;
54937;SDS011;52756;52.826;6.214;2023-12-20T10:34:49;10.43;;;2.03;;
54937;SDS011;52756;52.826;6.214;2023-12-20T10:37:15;6.10;;;1.27;;
54937;SDS011;52756;52.826;6.214;2023-12-20T10:39:41;13.25;;;1.75;;
54937;SDS011;52756;52.826;6.214;2023-12-20T10:42:09;9.00;;;1.63;;
54937;SDS011;52756;52.826;6.214;2023-12-20T10:44:36;11.10;;;1.48;;
54937;SDS011;52756;52.826;6.214;2023-12-20T10:47:02;6.45;;;1.35;;
54937;SDS011;52756;52.826;6.214;2023-12-20T10:49:29;6.82;;;1.90;;
54937;SDS011;52756;52.826;6.214;2023-12-20T10:51:56;8.55;;;1.42;;
54937;SDS011;52756;52.826;6.214;2023-12-20T10:54:24;14.48;;;2.67;;
54937;SDS011;52756;52.826;6.214;2023-12-20T10:56:51;9.95;;;2.08;;
54937;SDS011;52756;52.826;6.214;2023-12-20T10:59:18;10.88;;;1.45;;
54937;SDS011;52756;52.826;6.214;2023-12-20T11:01:45;6.72;;;1.27;;
54937;SDS011;52756;52.826;6.214;2023-12-20T11:04:14;8.35;;;1.38;;
54937;SDS011;52756;52.826;6.214;2023-12-20T11:07:06;7.55;;;1.60;;
54937;SDS011;52756;52.826;6.214;2023-12-20T11:09:42;8.30;;;1.58;;
54937;SDS011;52756;52.826;6.214;2023-12-20T11:12:35;8.27;;;1.67;;
54937;SDS011;52756;52.826;6.214;2023-12-20T11:15:06;10.50;;;1.77;;
54937;SDS011;52756;52.826;6.214;2023-12-20T11:17:32;9.05;;;2.20;;
54937;SDS011;52756;52.826;6.214;2023-12-20T11:22:26;13.95;;;2.25;;
54937;SDS011;52756;52.826;6.214;2023-12-20T11:24:54;12.98;;;2.00;;
54937;SDS011;52756;52.826;6.214;2023-12-20T11:27:24;7.93;;;1.80;;
54937;SDS011;52756;52.826;6.214;2023-12-20T11:29:53;10.60;;;1.88;;
54937;SDS011;52756;52.826;6.214;2023-12-20T11:34:50;8.27;;;2.38;;
54937;SDS011;52756;52.826;6.214;2023-12-20T11:37:19;7.38;;;1.77;;
54937;SDS011;52756;52.826;6.214;2023-12-20T11:39:45;8.07;;;1.52;;
54937;SDS011;52756;52.826;6.214;2023-12-20T11:42:20;12.15;;;2.15;;
54937;SDS011;52756;52.826;6.214;2023-12-20T11:44:45;5.93;;;1.40;;
54937;SDS011;52756;52.826;6.214;2023-12-20T11:47:12;7.38;;;1.52;;
54937;SDS011;52756;52.826;6.214;2023-12-20T11:49:38;11.43;;;2.08;;
54937;SDS011;52756;52.826;6.214;2023-12-20T11:52:05;7.05;;;1.33;;
54937;SDS011;52756;52.826;6.214;2023-12-20T11:54:31;9.43;;;1.73;;
54937;SDS011;52756;52.826;6.214;2023-12-20T11:56:56;13.07;;;2.75;;
54937;SDS011;52756;52.826;6.214;2023-12-20T11:59:23;4.85;;;1.48;;
54937;SDS011;52756;52.826;6.214;2023-12-20T12:01:48;5.22;;;1.30;;
54937;SDS011;52756;52.826;6.214;2023-12-20T12:04:17;5.82;;;1.20;;
54937;SDS011;52756;52.826;6.214;2023-12-20T12:06:43;9.10;;;1.88;;
54937;SDS011;52756;52.826;6.214;2023-12-20T12:09:10;5.47;;;1.35;;
54937;SDS011;52756;52.826;6.214;2023-12-20T12:11:35;4.70;;;1.13;;
54937;SDS011;52756;52.826;6.214;2023-12-20T12:14:01;11.68;;;1.75;;
54937;SDS011;52756;52.826;6.214;2023-12-20T12:16:27;9.02;;;1.60;;
54937;SDS011;52756;52.826;6.214;2023-12-20T12:18:56;9.35;;;2.13;;
54937;SDS011;52756;52.826;6.214;2023-12-20T12:21:22;7.18;;;2.30;;
54937;SDS011;52756;52.826;6.214;2023-12-20T12:23:48;10.32;;;2.33;;
54937;SDS011;52756;52.826;6.214;2023-12-20T12:26:14;7.07;;;1.58;;
54937;SDS011;52756;52.826;6.214;2023-12-20T12:28:40;10.85;;;1.88;;
54937;SDS011;52756;52.826;6.214;2023-12-20T12:31:06;9.13;;;2.10;;
54937;SDS011;52756;52.826;6.214;2023-12-20T12:33:32;7.90;;;1.40;;
54937;SDS011;52756;52.826;6.214;2023-12-20T12:35:59;10.85;;;1.50;;
54937;SDS011;52756;52.826;6.214;2023-12-20T12:38:26;8.68;;;1.70;;
54937;SDS011;52756;52.826;6.214;2023-12-20T12:40:52;10.70;;;1.80;;
54937;SDS011;52756;52.826;6.214;2023-12-20T12:43:19;7.78;;;1.58;;
54937;SDS011;52756;52.826;6.214;2023-12-20T12:45:44;8.50;;;1.70;;
54937;SDS011;52756;52.826;6.214;2023-12-20T12:48:10;11.18;;;1.58;;
54937;SDS011;52756;52.826;6.214;2023-12-20T12:50:36;11.65;;;1.77;;
54937;SDS011;52756;52.826;6.214;2023-12-20T12:53:01;4.88;;;1.33;;
54937;SDS011;52756;52.826;6.214;2023-12-20T12:55:27;10.35;;;1.65;;
54937;SDS011;52756;52.826;6.214;2023-12-20T12:57:53;5.03;;;1.10;;
54937;SDS011;52756;52.826;6.214;2023-12-20T13:00:19;5.50;;;1.40;;
54937;SDS011;52756;52.826;6.214;2023-12-20T13:02:45;8.65;;;1.85;;
54937;SDS011;52756;52.826;6.214;2023-12-20T13:05:10;7.53;;;1.48;;
54937;SDS011;52756;52.826;6.214;2023-12-20T13:07:36;4.47;;;1.20;;
54937;SDS011;52756;52.826;6.214;2023-12-20T13:10:02;5.70;;;1.60;;
54937;SDS011;52756;52.826;6.214;2023-12-20T13:12:29;9.32;;;1.63;;
54937;SDS011;52756;52.826;6.214;2023-12-20T13:14:54;9.65;;;1.98;;
54937;SDS011;52756;52.826;6.214;2023-12-20T13:17:20;6.90;;;1.30;;
54937;SDS011;52756;52.826;6.214;2023-12-20T13:19:46;7.00;;;1.70;;
54937;SDS011;52756;52.826;6.214;2023-12-20T13:22:11;4.95;;;1.00;;
54937;SDS011;52756;52.826;6.214;2023-12-20T13:24:37;7.80;;;1.45;;
54937;SDS011;52756;52.826;6.214;2023-12-20T13:27:03;5.80;;;1.45;;
54937;SDS011;52756;52.826;6.214;2023-12-20T13:29:28;6.28;;;1.35;;
54937;SDS011;52756;52.826;6.214;2023-12-20T13:31:54;4.65;;;1.02;;
54937;SDS011;52756;52.826;6.214;2023-12-20T13:34:19;9.82;;;1.10;;
54937;SDS011;52756;52.826;6.214;2023-12-20T13:36:46;5.68;;;0.90;;
54937;SDS011;52756;52.826;6.214;2023-12-20T13:39:12;6.18;;;1.08;;
54937;SDS011;52756;52.826;6.214;2023-12-20T13:41:39;10.93;;;1.80;;
54937;SDS011;52756;52.826;6.214;2023-12-20T13:44:04;7.75;;;1.27;;
54937;SDS011;52756;52.826;6.214;2023-12-20T13:46:30;8.50;;;2.20;;
54937;SDS011;52756;52.826;6.214;2023-12-20T13:48:58;9.07;;;1.15;;
54937;SDS011;52756;52.826;6.214;2023-12-20T13:51:24;6.03;;;1.20;;
54937;SDS011;52756;52.826;6.214;2023-12-20T13:53:50;5.10;;;1.15;;
54937;SDS011;52756;52.826;6.214;2023-12-20T13:56:16;3.85;;;1.17;;
54937;SDS011;52756;52.826;6.214;2023-12-20T13:58:41;6.15;;;1.20;;
54937;SDS011;52756;52.826;6.214;2023-12-20T14:01:10;7.80;;;1.30;;
54937;SDS011;52756;52.826;6.214;2023-12-20T14:03:36;8.68;;;1.20;;
54937;SDS011;52756;52.826;6.214;2023-12-20T14:06:02;6.53;;;1.30;;
54937;SDS011;52756;52.826;6.214;2023-12-20T14:08:28;7.65;;;1.35;;
54937;SDS011;52756;52.826;6.214;2023-12-20T14:10:54;10.50;;;1.67;;
54937;SDS011;52756;52.826;6.214;2023-12-20T14:13:19;6.90;;;1.48;;
54937;SDS011;52756;52.826;6.214;2023-12-20T14:15:46;7.75;;;1.20;;
54937;SDS011;52756;52.826;6.214;2023-12-20T14:18:12;7.95;;;2.22;;
54937;SDS011;52756;52.826;6.214;2023-12-20T14:20:40;9.35;;;1.88;;
54937;SDS011;52756;52.826;6.214;2023-12-20T14:23:07;7.22;;;1.40;;
54937;SDS011;52756;52.826;6.214;2023-12-20T14:25:34;6.95;;;1.50;;
54937;SDS011;52756;52.826;6.214;2023-12-20T14:28:02;9.75;;;2.22;;
54937;SDS011;52756;52.826;6.214;2023-12-20T14:30:29;12.00;;;3.15;;
54937;SDS011;52756;52.826;6.214;2023-12-20T14:32:54;7.57;;;1.30;;
54937;SDS011;52756;52.826;6.214;2023-12-20T14:35:20;5.63;;;1.90;;
54937;SDS011;52756;52.826;6.214;2023-12-20T14:37:45;10.00;;;2.38;;
54937;SDS011;52756;52.826;6.214;2023-12-20T14:40:11;10.68;;;2.28;;
54937;SDS011;52756;52.826;6.214;2023-12-20T14:42:43;12.07;;;2.42;;